Aérodrome :
LOGIN :

S'inscrire | Disclaimer

   EN    FR    IT 

 










Légende :    VFR   VFR Marginal   IFR   IFR Intensif   IFR Très Intensif
Visi : 
Plafond : 
>= 8 km
>= 3000ft
5 à 8 km
1000 à 3000 ft
1500m à 5 km
500 à 1000 ft
800 à 1500m
200 à 500 ft
< 800m
< 200 ft
Symboles :   Orages  Brouillard  Fortes neiges  Fortes précipitations  Vent > 20 kt
SIGMETs :   Divers  Orages  Givrage  Turbulence  Onde Orograph.  Cendres Volcan.







- Altitude de l'aérodrome : 7 ft
- Code IATA : XHE
- Voir les cartes d'approche


LFTH - Hyeres

DERNIER METAR :
  • 221800Z AUTO 12006KT CAVOK 26/10 Q1016 NOSIG

METARs EXPIRÉS :
  • 221730Z AUTO 18004KT 130V200 CAVOK 28/10 Q1015 NOSIG
  • 221700Z AUTO 34004KT 310V010 CAVOK 31/07 Q1015 NOSIG
  • 221630Z AUTO 30004KT CAVOK 32/07 Q1015 NOSIG
  • 221600Z AUTO 32006KT 280V360 CAVOK 31/08 Q1015 NOSIG
  • 221530Z AUTO 28007KT CAVOK 32/07 Q1014 NOSIG

TAF TAF LFTH
Valide du 22 à 15h jusqu'au 23 à 15h UTC


221400Z 2215/2315 28012KT CAVOK
BECMG 2218/2219 VRB03KT
BECMG 2309/2311 21006KT
TEMPO 2313/2315 27015G27KT
Pas de NOTAMs connus pour ce terrain.



MET'MAP, la Météo Aéronautique d'un coup d'oeil ! - Copyright ORBIFLY Décembre 2007 - Disclaimer

ORBIFLY MET'MAP TEAM :

Programmation & Développement : Alexandra Zaïnal
Conception & Développement : Baudouin d'Aumeries
Co-Programmation & Développement : Marc-Olivier Méhu
Soutien technique & logistique : Manuel Goepfert

Contact : metmap@orbifly.com




SOURCES & CREDITS :

   NOAA